sensor_id;sensor_type;location;lat;lon;timestamp;P1;durP1;ratioP1;P2;durP2;ratioP2
3563;SDS011;1796;52.388;13.096;2024-03-08T00:00:03;29.13;;;14.80;;
3563;SDS011;1796;52.388;13.096;2024-03-08T00:02:34;24.40;;;13.47;;
3563;SDS011;1796;52.388;13.096;2024-03-08T00:05:02;29.97;;;13.83;;
3563;SDS011;1796;52.388;13.096;2024-03-08T00:07:29;35.80;;;13.47;;
3563;SDS011;1796;52.388;13.096;2024-03-08T00:09:57;24.70;;;13.87;;
3563;SDS011;1796;52.388;13.096;2024-03-08T00:12:24;35.63;;;12.73;;
3563;SDS011;1796;52.388;13.096;2024-03-08T00:14:52;25.27;;;13.20;;
3563;SDS011;1796;52.388;13.096;2024-03-08T00:17:19;24.83;;;13.60;;
3563;SDS011;1796;52.388;13.096;2024-03-08T00:19:47;27.20;;;14.10;;
3563;SDS011;1796;52.388;13.096;2024-03-08T00:22:14;26.03;;;13.80;;
3563;SDS011;1796;52.388;13.096;2024-03-08T00:24:41;24.27;;;14.10;;
3563;SDS011;1796;52.388;13.096;2024-03-08T00:27:09;29.83;;;14.87;;
3563;SDS011;1796;52.388;13.096;2024-03-08T00:29:36;27.03;;;13.50;;
3563;SDS011;1796;52.388;13.096;2024-03-08T00:32:04;28.20;;;13.80;;
3563;SDS011;1796;52.388;13.096;2024-03-08T00:34:32;25.93;;;14.53;;
3563;SDS011;1796;52.388;13.096;2024-03-08T00:37:01;28.10;;;15.57;;
3563;SDS011;1796;52.388;13.096;2024-03-08T00:39:27;28.47;;;15.27;;
3563;SDS011;1796;52.388;13.096;2024-03-08T00:41:54;27.53;;;14.00;;
3563;SDS011;1796;52.388;13.096;2024-03-08T00:44:22;25.00;;;13.60;;
3563;SDS011;1796;52.388;13.096;2024-03-08T00:46:49;26.40;;;14.43;;
3563;SDS011;1796;52.388;13.096;2024-03-08T00:49:16;35.10;;;14.53;;
3563;SDS011;1796;52.388;13.096;2024-03-08T00:51:43;27.77;;;15.17;;
3563;SDS011;1796;52.388;13.096;2024-03-08T00:54:09;33.33;;;15.17;;
3563;SDS011;1796;52.388;13.096;2024-03-08T00:56:36;34.77;;;14.43;;
3563;SDS011;1796;52.388;13.096;2024-03-08T00:59:04;25.50;;;13.67;;
3563;SDS011;1796;52.388;13.096;2024-03-08T01:01:32;29.50;;;14.83;;
3563;SDS011;1796;52.388;13.096;2024-03-08T01:03:59;29.13;;;15.13;;
3563;SDS011;1796;52.388;13.096;2024-03-08T01:06:26;26.87;;;14.07;;
3563;SDS011;1796;52.388;13.096;2024-03-08T01:08:53;29.13;;;13.73;;
3563;SDS011;1796;52.388;13.096;2024-03-08T01:11:19;24.70;;;14.93;;
3563;SDS011;1796;52.388;13.096;2024-03-08T01:13:46;30.60;;;14.60;;
3563;SDS011;1796;52.388;13.096;2024-03-08T01:16:14;26.77;;;13.93;;
3563;SDS011;1796;52.388;13.096;2024-03-08T01:18:43;29.13;;;14.93;;
3563;SDS011;1796;52.388;13.096;2024-03-08T01:21:10;26.00;;;14.47;;
3563;SDS011;1796;52.388;13.096;2024-03-08T01:23:36;30.70;;;15.70;;
3563;SDS011;1796;52.388;13.096;2024-03-08T01:26:03;31.73;;;15.20;;
3563;SDS011;1796;52.388;13.096;2024-03-08T01:28:31;31.20;;;14.97;;
3563;SDS011;1796;52.388;13.096;2024-03-08T01:30:59;30.10;;;14.60;;
3563;SDS011;1796;52.388;13.096;2024-03-08T01:33:26;34.17;;;15.30;;
3563;SDS011;1796;52.388;13.096;2024-03-08T01:35:55;38.80;;;17.03;;
3563;SDS011;1796;52.388;13.096;2024-03-08T01:38:22;26.50;;;14.20;;
3563;SDS011;1796;52.388;13.096;2024-03-08T01:40:49;32.37;;;14.10;;
3563;SDS011;1796;52.388;13.096;2024-03-08T01:43:17;28.80;;;14.57;;
3563;SDS011;1796;52.388;13.096;2024-03-08T01:45:45;33.77;;;14.80;;
3563;SDS011;1796;52.388;13.096;2024-03-08T01:48:12;24.87;;;13.87;;
3563;SDS011;1796;52.388;13.096;2024-03-08T01:50:39;28.83;;;14.93;;
3563;SDS011;1796;52.388;13.096;2024-03-08T01:53:08;33.43;;;15.87;;
3563;SDS011;1796;52.388;13.096;2024-03-08T01:55:40;27.63;;;14.00;;
3563;SDS011;1796;52.388;13.096;2024-03-08T01:58:09;24.60;;;13.40;;
3563;SDS011;1796;52.388;13.096;2024-03-08T02:00:36;24.07;;;13.43;;
3563;SDS011;1796;52.388;13.096;2024-03-08T02:03:06;24.53;;;13.23;;
3563;SDS011;1796;52.388;13.096;2024-03-08T02:05:33;26.93;;;14.43;;
3563;SDS011;1796;52.388;13.096;2024-03-08T02:08:00;23.10;;;12.83;;
3563;SDS011;1796;52.388;13.096;2024-03-08T02:10:29;30.00;;;13.77;;
3563;SDS011;1796;52.388;13.096;2024-03-08T02:12:55;33.57;;;14.00;;
3563;SDS011;1796;52.388;13.096;2024-03-08T02:15:23;31.87;;;14.33;;
3563;SDS011;1796;52.388;13.096;2024-03-08T02:17:51;26.00;;;14.20;;
3563;SDS011;1796;52.388;13.096;2024-03-08T02:20:18;25.80;;;13.50;;
3563;SDS011;1796;52.388;13.096;2024-03-08T02:22:46;28.97;;;14.97;;
3563;SDS011;1796;52.388;13.096;2024-03-08T02:25:15;34.40;;;15.00;;
3563;SDS011;1796;52.388;13.096;2024-03-08T02:27:43;39.93;;;15.70;;
3563;SDS011;1796;52.388;13.096;2024-03-08T02:30:11;31.33;;;15.60;;
3563;SDS011;1796;52.388;13.096;2024-03-08T02:32:38;29.40;;;15.27;;
3563;SDS011;1796;52.388;13.096;2024-03-08T02:35:05;32.33;;;15.53;;
3563;SDS011;1796;52.388;13.096;2024-03-08T02:37:32;34.87;;;16.37;;
3563;SDS011;1796;52.388;13.096;2024-03-08T02:40:00;28.70;;;15.33;;
3563;SDS011;1796;52.388;13.096;2024-03-08T02:42:27;38.47;;;16.27;;
3563;SDS011;1796;52.388;13.096;2024-03-08T02:44:54;28.33;;;15.47;;
3563;SDS011;1796;52.388;13.096;2024-03-08T02:47:20;31.87;;;15.33;;
3563;SDS011;1796;52.388;13.096;2024-03-08T02:49:47;32.13;;;15.60;;
3563;SDS011;1796;52.388;13.096;2024-03-08T02:52:15;33.70;;;16.20;;
3563;SDS011;1796;52.388;13.096;2024-03-08T02:54:42;31.80;;;15.90;;
3563;SDS011;1796;52.388;13.096;2024-03-08T02:57:10;34.27;;;16.03;;
3563;SDS011;1796;52.388;13.096;2024-03-08T02:59:37;33.40;;;17.40;;
3563;SDS011;1796;52.388;13.096;2024-03-08T03:02:05;29.97;;;15.60;;
3563;SDS011;1796;52.388;13.096;2024-03-08T03:04:32;36.13;;;15.80;;
3563;SDS011;1796;52.388;13.096;2024-03-08T03:06:59;32.00;;;16.40;;
3563;SDS011;1796;52.388;13.096;2024-03-08T03:09:26;33.30;;;16.50;;
3563;SDS011;1796;52.388;13.096;2024-03-08T03:11:53;29.37;;;15.63;;
3563;SDS011;1796;52.388;13.096;2024-03-08T03:14:22;32.43;;;14.40;;
3563;SDS011;1796;52.388;13.096;2024-03-08T03:16:48;27.37;;;14.40;;
3563;SDS011;1796;52.388;13.096;2024-03-08T03:19:15;27.03;;;14.40;;
3563;SDS011;1796;52.388;13.096;2024-03-08T03:21:42;23.90;;;13.10;;
3563;SDS011;1796;52.388;13.096;2024-03-08T03:24:09;32.07;;;14.83;;
3563;SDS011;1796;52.388;13.096;2024-03-08T03:26:36;32.00;;;15.10;;
3563;SDS011;1796;52.388;13.096;2024-03-08T03:29:05;30.63;;;15.27;;
3563;SDS011;1796;52.388;13.096;2024-03-08T03:31:35;38.07;;;15.83;;
3563;SDS011;1796;52.388;13.096;2024-03-08T03:34:02;35.10;;;14.97;;
3563;SDS011;1796;52.388;13.096;2024-03-08T03:36:29;34.63;;;17.03;;
3563;SDS011;1796;52.388;13.096;2024-03-08T03:38:56;33.37;;;15.87;;
3563;SDS011;1796;52.388;13.096;2024-03-08T03:41:35;30.10;;;14.87;;
3563;SDS011;1796;52.388;13.096;2024-03-08T03:44:01;30.83;;;15.40;;
3563;SDS011;1796;52.388;13.096;2024-03-08T03:46:28;28.90;;;13.83;;
3563;SDS011;1796;52.388;13.096;2024-03-08T03:48:56;26.60;;;14.40;;
3563;SDS011;1796;52.388;13.096;2024-03-08T03:51:23;34.00;;;17.17;;
3563;SDS011;1796;52.388;13.096;2024-03-08T03:53:50;32.40;;;15.23;;
3563;SDS011;1796;52.388;13.096;2024-03-08T03:56:18;39.47;;;16.87;;
3563;SDS011;1796;52.388;13.096;2024-03-08T03:58:44;28.83;;;15.33;;
3563;SDS011;1796;52.388;13.096;2024-03-08T04:01:11;32.60;;;16.10;;
3563;SDS011;1796;52.388;13.096;2024-03-08T04:03:38;31.37;;;16.33;;
3563;SDS011;1796;52.388;13.096;2024-03-08T04:06:09;33.97;;;15.20;;
3563;SDS011;1796;52.388;13.096;2024-03-08T04:08:36;37.80;;;17.30;;
3563;SDS011;1796;52.388;13.096;2024-03-08T04:11:03;34.10;;;15.73;;
3563;SDS011;1796;52.388;13.096;2024-03-08T04:13:29;35.90;;;16.13;;
3563;SDS011;1796;52.388;13.096;2024-03-08T04:15:56;36.57;;;16.63;;
3563;SDS011;1796;52.388;13.096;2024-03-08T04:18:23;34.10;;;16.93;;
3563;SDS011;1796;52.388;13.096;2024-03-08T04:20:49;32.30;;;15.73;;
3563;SDS011;1796;52.388;13.096;2024-03-08T04:23:17;28.33;;;15.50;;
3563;SDS011;1796;52.388;13.096;2024-03-08T04:25:44;32.27;;;16.20;;
3563;SDS011;1796;52.388;13.096;2024-03-08T04:28:11;39.93;;;17.00;;
3563;SDS011;1796;52.388;13.096;2024-03-08T04:30:38;33.57;;;15.30;;
3563;SDS011;1796;52.388;13.096;2024-03-08T04:33:05;29.83;;;15.20;;
3563;SDS011;1796;52.388;13.096;2024-03-08T04:35:33;34.83;;;16.33;;
3563;SDS011;1796;52.388;13.096;2024-03-08T04:38:00;34.90;;;15.60;;
3563;SDS011;1796;52.388;13.096;2024-03-08T04:40:28;28.43;;;15.50;;
3563;SDS011;1796;52.388;13.096;2024-03-08T04:42:55;30.53;;;15.23;;
3563;SDS011;1796;52.388;13.096;2024-03-08T04:45:21;28.00;;;14.87;;
3563;SDS011;1796;52.388;13.096;2024-03-08T04:47:50;31.37;;;14.70;;
3563;SDS011;1796;52.388;13.096;2024-03-08T04:50:17;29.90;;;12.87;;
3563;SDS011;1796;52.388;13.096;2024-03-08T04:52:44;34.23;;;16.23;;
3563;SDS011;1796;52.388;13.096;2024-03-08T04:55:11;37.33;;;16.97;;
3563;SDS011;1796;52.388;13.096;2024-03-08T04:57:39;32.90;;;15.43;;
3563;SDS011;1796;52.388;13.096;2024-03-08T05:00:07;33.47;;;15.20;;
3563;SDS011;1796;52.388;13.096;2024-03-08T05:02:36;31.60;;;16.63;;
3563;SDS011;1796;52.388;13.096;2024-03-08T05:05:04;28.23;;;14.80;;
3563;SDS011;1796;52.388;13.096;2024-03-08T05:07:32;31.73;;;15.83;;
3563;SDS011;1796;52.388;13.096;2024-03-08T05:09:58;31.93;;;14.07;;
3563;SDS011;1796;52.388;13.096;2024-03-08T05:12:25;31.50;;;16.87;;
3563;SDS011;1796;52.388;13.096;2024-03-08T05:14:53;29.90;;;15.83;;
3563;SDS011;1796;52.388;13.096;2024-03-08T05:17:20;36.40;;;16.10;;
3563;SDS011;1796;52.388;13.096;2024-03-08T05:19:49;35.20;;;16.27;;
3563;SDS011;1796;52.388;13.096;2024-03-08T05:22:15;33.93;;;15.50;;
3563;SDS011;1796;52.388;13.096;2024-03-08T05:24:42;37.90;;;16.37;;
3563;SDS011;1796;52.388;13.096;2024-03-08T05:27:09;35.03;;;16.77;;
3563;SDS011;1796;52.388;13.096;2024-03-08T05:29:36;32.00;;;16.20;;
3563;SDS011;1796;52.388;13.096;2024-03-08T05:32:04;32.03;;;16.93;;
3563;SDS011;1796;52.388;13.096;2024-03-08T05:34:32;31.70;;;17.33;;
3563;SDS011;1796;52.388;13.096;2024-03-08T05:36:58;36.60;;;17.50;;
3563;SDS011;1796;52.388;13.096;2024-03-08T05:39:26;36.23;;;17.03;;
3563;SDS011;1796;52.388;13.096;2024-03-08T05:41:53;37.50;;;16.87;;
3563;SDS011;1796;52.388;13.096;2024-03-08T05:44:21;29.97;;;15.30;;
3563;SDS011;1796;52.388;13.096;2024-03-08T05:46:48;36.57;;;16.30;;
3563;SDS011;1796;52.388;13.096;2024-03-08T05:49:17;45.27;;;16.27;;
3563;SDS011;1796;52.388;13.096;2024-03-08T05:51:44;37.40;;;17.17;;
3563;SDS011;1796;52.388;13.096;2024-03-08T05:54:12;32.90;;;16.97;;
3563;SDS011;1796;52.388;13.096;2024-03-08T05:56:40;43.50;;;17.97;;
3563;SDS011;1796;52.388;13.096;2024-03-08T05:59:07;42.30;;;19.10;;
3563;SDS011;1796;52.388;13.096;2024-03-08T06:01:34;44.53;;;19.23;;
3563;SDS011;1796;52.388;13.096;2024-03-08T06:04:01;40.23;;;18.60;;
3563;SDS011;1796;52.388;13.096;2024-03-08T06:06:30;40.43;;;17.53;;
3563;SDS011;1796;52.388;13.096;2024-03-08T06:08:57;41.53;;;18.90;;
3563;SDS011;1796;52.388;13.096;2024-03-08T06:11:24;40.87;;;19.83;;
3563;SDS011;1796;52.388;13.096;2024-03-08T06:13:52;39.30;;;19.37;;
3563;SDS011;1796;52.388;13.096;2024-03-08T06:16:24;37.93;;;18.53;;
3563;SDS011;1796;52.388;13.096;2024-03-08T06:18:54;40.93;;;17.30;;
3563;SDS011;1796;52.388;13.096;2024-03-08T06:21:22;42.37;;;19.77;;
3563;SDS011;1796;52.388;13.096;2024-03-08T06:23:52;41.67;;;19.50;;
3563;SDS011;1796;52.388;13.096;2024-03-08T06:26:19;32.33;;;17.07;;
3563;SDS011;1796;52.388;13.096;2024-03-08T06:28:47;44.03;;;19.10;;
3563;SDS011;1796;52.388;13.096;2024-03-08T06:31:14;35.20;;;17.70;;
3563;SDS011;1796;52.388;13.096;2024-03-08T06:33:40;32.13;;;17.23;;
3563;SDS011;1796;52.388;13.096;2024-03-08T06:36:08;38.87;;;19.10;;
3563;SDS011;1796;52.388;13.096;2024-03-08T06:38:36;32.67;;;17.73;;
3563;SDS011;1796;52.388;13.096;2024-03-08T06:41:08;33.93;;;17.67;;
3563;SDS011;1796;52.388;13.096;2024-03-08T06:43:40;37.60;;;17.90;;
3563;SDS011;1796;52.388;13.096;2024-03-08T06:46:07;31.73;;;17.10;;
3563;SDS011;1796;52.388;13.096;2024-03-08T06:48:33;34.90;;;17.00;;
3563;SDS011;1796;52.388;13.096;2024-03-08T06:51:02;33.07;;;16.80;;
3563;SDS011;1796;52.388;13.096;2024-03-08T06:53:29;34.17;;;16.60;;
3563;SDS011;1796;52.388;13.096;2024-03-08T06:55:55;37.63;;;17.50;;
3563;SDS011;1796;52.388;13.096;2024-03-08T06:58:24;36.83;;;18.60;;
3563;SDS011;1796;52.388;13.096;2024-03-08T07:00:50;35.87;;;16.97;;
3563;SDS011;1796;52.388;13.096;2024-03-08T07:03:17;37.97;;;18.10;;
3563;SDS011;1796;52.388;13.096;2024-03-08T07:05:44;29.93;;;16.03;;
3563;SDS011;1796;52.388;13.096;2024-03-08T07:08:11;30.47;;;16.13;;
3563;SDS011;1796;52.388;13.096;2024-03-08T07:10:39;32.97;;;17.50;;
3563;SDS011;1796;52.388;13.096;2024-03-08T07:13:06;35.93;;;16.70;;
3563;SDS011;1796;52.388;13.096;2024-03-08T07:15:35;28.10;;;16.17;;
3563;SDS011;1796;52.388;13.096;2024-03-08T07:18:02;34.13;;;17.37;;
3563;SDS011;1796;52.388;13.096;2024-03-08T07:20:29;31.73;;;17.30;;
3563;SDS011;1796;52.388;13.096;2024-03-08T07:22:56;29.20;;;17.10;;
3563;SDS011;1796;52.388;13.096;2024-03-08T07:25:22;24.40;;;15.80;;
3563;SDS011;1796;52.388;13.096;2024-03-08T07:27:50;35.43;;;18.63;;
3563;SDS011;1796;52.388;13.096;2024-03-08T07:30:17;33.03;;;18.00;;
3563;SDS011;1796;52.388;13.096;2024-03-08T07:32:59;32.33;;;15.83;;
3563;SDS011;1796;52.388;13.096;2024-03-08T07:35:27;52.43;;;15.90;;
3563;SDS011;1796;52.388;13.096;2024-03-08T07:37:54;32.10;;;16.93;;
3563;SDS011;1796;52.388;13.096;2024-03-08T07:40:20;34.67;;;18.17;;
3563;SDS011;1796;52.388;13.096;2024-03-08T07:42:48;30.03;;;17.23;;
3563;SDS011;1796;52.388;13.096;2024-03-08T07:45:15;33.07;;;17.50;;
3563;SDS011;1796;52.388;13.096;2024-03-08T07:47:42;33.80;;;17.73;;
3563;SDS011;1796;52.388;13.096;2024-03-08T07:50:10;37.70;;;17.27;;
3563;SDS011;1796;52.388;13.096;2024-03-08T07:52:40;37.13;;;19.60;;
3563;SDS011;1796;52.388;13.096;2024-03-08T07:55:08;33.93;;;18.03;;
3563;SDS011;1796;52.388;13.096;2024-03-08T07:57:35;33.47;;;16.90;;
3563;SDS011;1796;52.388;13.096;2024-03-08T08:00:03;35.73;;;17.80;;
3563;SDS011;1796;52.388;13.096;2024-03-08T08:02:32;37.00;;;17.87;;
3563;SDS011;1796;52.388;13.096;2024-03-08T08:04:59;35.43;;;17.77;;
3563;SDS011;1796;52.388;13.096;2024-03-08T08:07:27;31.92;;;19.27;;
3563;SDS011;1796;52.388;13.096;2024-03-08T08:09:54;26.17;;;16.73;;
3563;SDS011;1796;52.388;13.096;2024-03-08T08:12:20;35.70;;;17.60;;
3563;SDS011;1796;52.388;13.096;2024-03-08T08:14:47;31.47;;;17.47;;
3563;SDS011;1796;52.388;13.096;2024-03-08T08:17:15;29.13;;;16.97;;
3563;SDS011;1796;52.388;13.096;2024-03-08T08:19:42;29.90;;;16.17;;
3563;SDS011;1796;52.388;13.096;2024-03-08T08:22:09;30.17;;;16.50;;
3563;SDS011;1796;52.388;13.096;2024-03-08T08:24:37;31.90;;;16.83;;
3563;SDS011;1796;52.388;13.096;2024-03-08T08:27:05;34.33;;;16.03;;
3563;SDS011;1796;52.388;13.096;2024-03-08T08:29:31;30.40;;;16.87;;
3563;SDS011;1796;52.388;13.096;2024-03-08T08:32:00;36.60;;;16.50;;
3563;SDS011;1796;52.388;13.096;2024-03-08T08:34:27;35.93;;;17.37;;
3563;SDS011;1796;52.388;13.096;2024-03-08T08:36:55;36.97;;;17.30;;
3563;SDS011;1796;52.388;13.096;2024-03-08T08:39:21;30.17;;;16.90;;
3563;SDS011;1796;52.388;13.096;2024-03-08T08:41:52;30.00;;;17.30;;
3563;SDS011;1796;52.388;13.096;2024-03-08T08:44:18;32.57;;;16.50;;
3563;SDS011;1796;52.388;13.096;2024-03-08T08:46:45;35.57;;;18.43;;
3563;SDS011;1796;52.388;13.096;2024-03-08T08:49:12;35.53;;;16.10;;
3563;SDS011;1796;52.388;13.096;2024-03-08T08:51:41;39.53;;;18.00;;
3563;SDS011;1796;52.388;13.096;2024-03-08T08:54:08;32.30;;;17.37;;
3563;SDS011;1796;52.388;13.096;2024-03-08T08:56:34;35.33;;;17.53;;
3563;SDS011;1796;52.388;13.096;2024-03-08T08:59:03;32.00;;;17.33;;
3563;SDS011;1796;52.388;13.096;2024-03-08T09:01:30;32.93;;;17.17;;
3563;SDS011;1796;52.388;13.096;2024-03-08T09:03:58;29.40;;;16.50;;
3563;SDS011;1796;52.388;13.096;2024-03-08T09:06:24;30.03;;;16.70;;
3563;SDS011;1796;52.388;13.096;2024-03-08T09:08:51;31.00;;;16.47;;
3563;SDS011;1796;52.388;13.096;2024-03-08T09:11:18;26.67;;;15.80;;
3563;SDS011;1796;52.388;13.096;2024-03-08T09:13:45;26.90;;;15.37;;
3563;SDS011;1796;52.388;13.096;2024-03-08T09:16:13;25.70;;;15.10;;
3563;SDS011;1796;52.388;13.096;2024-03-08T09:18:41;30.57;;;16.60;;
3563;SDS011;1796;52.388;13.096;2024-03-08T09:21:07;36.00;;;16.93;;
3563;SDS011;1796;52.388;13.096;2024-03-08T09:23:35;24.73;;;14.30;;
3563;SDS011;1796;52.388;13.096;2024-03-08T09:26:01;26.40;;;15.50;;
3563;SDS011;1796;52.388;13.096;2024-03-08T09:28:29;30.40;;;15.87;;
3563;SDS011;1796;52.388;13.096;2024-03-08T09:30:55;26.17;;;14.87;;
3563;SDS011;1796;52.388;13.096;2024-03-08T09:33:25;23.93;;;15.53;;
3563;SDS011;1796;52.388;13.096;2024-03-08T09:35:53;23.40;;;14.43;;
3563;SDS011;1796;52.388;13.096;2024-03-08T09:38:22;38.97;;;13.60;;
3563;SDS011;1796;52.388;13.096;2024-03-08T09:40:50;25.13;;;14.30;;
3563;SDS011;1796;52.388;13.096;2024-03-08T09:43:18;24.07;;;14.23;;
3563;SDS011;1796;52.388;13.096;2024-03-08T09:45:45;24.00;;;13.73;;
3563;SDS011;1796;52.388;13.096;2024-03-08T09:48:14;29.57;;;14.80;;
3563;SDS011;1796;52.388;13.096;2024-03-08T09:50:45;29.53;;;14.13;;
3563;SDS011;1796;52.388;13.096;2024-03-08T09:53:13;25.83;;;15.10;;
3563;SDS011;1796;52.388;13.096;2024-03-08T09:55:40;27.33;;;13.53;;
3563;SDS011;1796;52.388;13.096;2024-03-08T09:58:10;25.77;;;13.47;;
3563;SDS011;1796;52.388;13.096;2024-03-08T10:01:01;20.30;;;12.10;;
3563;SDS011;1796;52.388;13.096;2024-03-08T10:03:29;22.13;;;12.50;;
3563;SDS011;1796;52.388;13.096;2024-03-08T10:05:58;20.57;;;13.47;;
3563;SDS011;1796;52.388;13.096;2024-03-08T10:08:26;18.50;;;11.70;;
3563;SDS011;1796;52.388;13.096;2024-03-08T10:10:54;23.90;;;12.13;;
3563;SDS011;1796;52.388;13.096;2024-03-08T10:13:23;25.73;;;12.70;;
3563;SDS011;1796;52.388;13.096;2024-03-08T10:15:51;23.47;;;12.90;;
3563;SDS011;1796;52.388;13.096;2024-03-08T10:18:18;27.67;;;13.50;;
3563;SDS011;1796;52.388;13.096;2024-03-08T10:20:51;22.10;;;12.70;;
3563;SDS011;1796;52.388;13.096;2024-03-08T10:23:33;32.70;;;13.20;;
3563;SDS011;1796;52.388;13.096;2024-03-08T10:26:10;26.33;;;12.23;;
3563;SDS011;1796;52.388;13.096;2024-03-08T10:28:39;28.27;;;13.63;;
3563;SDS011;1796;52.388;13.096;2024-03-08T10:31:06;24.97;;;13.13;;
3563;SDS011;1796;52.388;13.096;2024-03-08T10:33:33;22.53;;;13.20;;
3563;SDS011;1796;52.388;13.096;2024-03-08T10:36:00;25.63;;;13.13;;
3563;SDS011;1796;52.388;13.096;2024-03-08T10:38:29;25.03;;;12.90;;
3563;SDS011;1796;52.388;13.096;2024-03-08T10:40:58;27.17;;;14.77;;
3563;SDS011;1796;52.388;13.096;2024-03-08T10:43:26;28.20;;;14.33;;
3563;SDS011;1796;52.388;13.096;2024-03-08T10:46:04;28.60;;;14.70;;
3563;SDS011;1796;52.388;13.096;2024-03-08T10:48:43;24.93;;;13.70;;
3563;SDS011;1796;52.388;13.096;2024-03-08T10:51:12;22.23;;;12.23;;
3563;SDS011;1796;52.388;13.096;2024-03-08T10:53:41;25.90;;;13.53;;
3563;SDS011;1796;52.388;13.096;2024-03-08T10:56:10;27.80;;;12.73;;
3563;SDS011;1796;52.388;13.096;2024-03-08T10:58:39;20.17;;;11.43;;
3563;SDS011;1796;52.388;13.096;2024-03-08T11:01:07;28.03;;;13.50;;
3563;SDS011;1796;52.388;13.096;2024-03-08T11:03:44;19.70;;;12.20;;
3563;SDS011;1796;52.388;13.096;2024-03-08T11:06:14;19.37;;;12.07;;
3563;SDS011;1796;52.388;13.096;2024-03-08T11:08:43;16.70;;;11.50;;
3563;SDS011;1796;52.388;13.096;2024-03-08T11:11:26;17.97;;;10.23;;
3563;SDS011;1796;52.388;13.096;2024-03-08T11:13:55;19.50;;;11.20;;
3563;SDS011;1796;52.388;13.096;2024-03-08T11:19:22;18.80;;;11.60;;
3563;SDS011;1796;52.388;13.096;2024-03-08T11:22:03;19.07;;;10.53;;
3563;SDS011;1796;52.388;13.096;2024-03-08T11:24:36;17.53;;;10.07;;
3563;SDS011;1796;52.388;13.096;2024-03-08T11:27:05;19.23;;;11.70;;
3563;SDS011;1796;52.388;13.096;2024-03-08T11:29:36;19.53;;;11.07;;
3563;SDS011;1796;52.388;13.096;2024-03-08T11:32:05;25.10;;;10.87;;
3563;SDS011;1796;52.388;13.096;2024-03-08T11:34:34;20.00;;;12.90;;
3563;SDS011;1796;52.388;13.096;2024-03-08T11:37:04;17.77;;;11.77;;
3563;SDS011;1796;52.388;13.096;2024-03-08T11:39:34;16.80;;;11.03;;
3563;SDS011;1796;52.388;13.096;2024-03-08T11:42:03;18.13;;;11.40;;
3563;SDS011;1796;52.388;13.096;2024-03-08T11:44:30;17.73;;;9.93;;
3563;SDS011;1796;52.388;13.096;2024-03-08T11:46:57;17.73;;;11.57;;
3563;SDS011;1796;52.388;13.096;2024-03-08T11:49:24;18.27;;;11.40;;
3563;SDS011;1796;52.388;13.096;2024-03-08T11:51:51;23.10;;;11.93;;
3563;SDS011;1796;52.388;13.096;2024-03-08T11:54:19;19.53;;;11.03;;
3563;SDS011;1796;52.388;13.096;2024-03-08T11:56:46;22.97;;;12.23;;
3563;SDS011;1796;52.388;13.096;2024-03-08T11:59:13;15.63;;;10.10;;
3563;SDS011;1796;52.388;13.096;2024-03-08T12:01:40;23.53;;;10.47;;
3563;SDS011;1796;52.388;13.096;2024-03-08T12:04:11;19.60;;;11.70;;
3563;SDS011;1796;52.388;13.096;2024-03-08T12:06:39;16.50;;;10.50;;
3563;SDS011;1796;52.388;13.096;2024-03-08T12:09:09;18.73;;;10.27;;
3563;SDS011;1796;52.388;13.096;2024-03-08T12:11:39;16.80;;;10.80;;
3563;SDS011;1796;52.388;13.096;2024-03-08T12:14:06;16.03;;;9.40;;
3563;SDS011;1796;52.388;13.096;2024-03-08T12:16:33;18.27;;;10.30;;
3563;SDS011;1796;52.388;13.096;2024-03-08T12:18:59;24.40;;;9.90;;
3563;SDS011;1796;52.388;13.096;2024-03-08T12:21:31;27.53;;;10.80;;
3563;SDS011;1796;52.388;13.096;2024-03-08T12:24:03;18.43;;;10.10;;
3563;SDS011;1796;52.388;13.096;2024-03-08T12:26:34;16.87;;;9.60;;
3563;SDS011;1796;52.388;13.096;2024-03-08T12:29:16;15.43;;;10.00;;
3563;SDS011;1796;52.388;13.096;2024-03-08T12:31:45;19.50;;;10.00;;
3563;SDS011;1796;52.388;13.096;2024-03-08T12:34:12;19.30;;;9.60;;
3563;SDS011;1796;52.388;13.096;2024-03-08T12:36:43;18.27;;;9.90;;
3563;SDS011;1796;52.388;13.096;2024-03-08T12:39:12;17.50;;;8.70;;
3563;SDS011;1796;52.388;13.096;2024-03-08T12:41:41;16.13;;;9.50;;
3563;SDS011;1796;52.388;13.096;2024-03-08T12:44:08;17.30;;;9.37;;
3563;SDS011;1796;52.388;13.096;2024-03-08T12:46:37;18.33;;;9.73;;
3563;SDS011;1796;52.388;13.096;2024-03-08T12:49:07;18.40;;;8.60;;
3563;SDS011;1796;52.388;13.096;2024-03-08T12:51:33;17.70;;;8.90;;
3563;SDS011;1796;52.388;13.096;2024-03-08T12:54:00;18.07;;;8.80;;
3563;SDS011;1796;52.388;13.096;2024-03-08T12:56:30;18.07;;;9.63;;
3563;SDS011;1796;52.388;13.096;2024-03-08T12:58:58;15.07;;;10.10;;
3563;SDS011;1796;52.388;13.096;2024-03-08T13:01:26;14.93;;;9.80;;
3563;SDS011;1796;52.388;13.096;2024-03-08T13:03:54;16.90;;;8.67;;
3563;SDS011;1796;52.388;13.096;2024-03-08T13:06:21;15.80;;;8.93;;
3563;SDS011;1796;52.388;13.096;2024-03-08T13:08:49;13.33;;;9.27;;
3563;SDS011;1796;52.388;13.096;2024-03-08T13:11:17;18.53;;;9.93;;
3563;SDS011;1796;52.388;13.096;2024-03-08T13:13:44;13.40;;;9.07;;
3563;SDS011;1796;52.388;13.096;2024-03-08T13:16:11;19.20;;;10.47;;
3563;SDS011;1796;52.388;13.096;2024-03-08T13:18:40;15.53;;;8.50;;
3563;SDS011;1796;52.388;13.096;2024-03-08T13:21:09;15.43;;;9.60;;
3563;SDS011;1796;52.388;13.096;2024-03-08T13:23:38;14.97;;;9.50;;
3563;SDS011;1796;52.388;13.096;2024-03-08T13:26:06;18.70;;;10.07;;
3563;SDS011;1796;52.388;13.096;2024-03-08T13:28:33;23.83;;;9.60;;
3563;SDS011;1796;52.388;13.096;2024-03-08T13:31:02;20.57;;;9.50;;
3563;SDS011;1796;52.388;13.096;2024-03-08T13:33:31;17.90;;;10.00;;
3563;SDS011;1796;52.388;13.096;2024-03-08T13:36:00;19.50;;;11.20;;
3563;SDS011;1796;52.388;13.096;2024-03-08T13:38:29;14.73;;;10.07;;
3563;SDS011;1796;52.388;13.096;2024-03-08T13:40:57;17.90;;;10.57;;
3563;SDS011;1796;52.388;13.096;2024-03-08T13:43:24;17.67;;;9.23;;
3563;SDS011;1796;52.388;13.096;2024-03-08T13:45:53;18.03;;;9.57;;
3563;SDS011;1796;52.388;13.096;2024-03-08T13:48:20;15.40;;;8.90;;
3563;SDS011;1796;52.388;13.096;2024-03-08T13:50:47;14.60;;;8.70;;
3563;SDS011;1796;52.388;13.096;2024-03-08T13:53:15;12.23;;;9.10;;
3563;SDS011;1796;52.388;13.096;2024-03-08T13:55:43;17.00;;;8.60;;
3563;SDS011;1796;52.388;13.096;2024-03-08T13:58:10;16.30;;;8.90;;
3563;SDS011;1796;52.388;13.096;2024-03-08T14:00:39;12.67;;;8.40;;
3563;SDS011;1796;52.388;13.096;2024-03-08T14:03:08;15.97;;;8.67;;
3563;SDS011;1796;52.388;13.096;2024-03-08T14:05:38;25.13;;;7.37;;
3563;SDS011;1796;52.388;13.096;2024-03-08T14:08:05;14.97;;;8.80;;
3563;SDS011;1796;52.388;13.096;2024-03-08T14:10:32;14.13;;;9.37;;
3563;SDS011;1796;52.388;13.096;2024-03-08T14:13:00;19.77;;;8.67;;
3563;SDS011;1796;52.388;13.096;2024-03-08T14:15:27;16.03;;;9.33;;
3563;SDS011;1796;52.388;13.096;2024-03-08T14:17:55;14.47;;;8.80;;
3563;SDS011;1796;52.388;13.096;2024-03-08T14:20:22;17.70;;;9.50;;
3563;SDS011;1796;52.388;13.096;2024-03-08T14:22:50;15.70;;;8.90;;
3563;SDS011;1796;52.388;13.096;2024-03-08T14:25:17;14.50;;;9.33;;
3563;SDS011;1796;52.388;13.096;2024-03-08T14:27:44;12.50;;;8.90;;
3563;SDS011;1796;52.388;13.096;2024-03-08T14:30:12;15.00;;;9.47;;
3563;SDS011;1796;52.388;13.096;2024-03-08T14:32:53;14.10;;;7.80;;
3563;SDS011;1796;52.388;13.096;2024-03-08T14:35:20;14.53;;;8.40;;
3563;SDS011;1796;52.388;13.096;2024-03-08T14:37:46;14.07;;;9.13;;
3563;SDS011;1796;52.388;13.096;2024-03-08T14:40:15;15.17;;;8.10;;
3563;SDS011;1796;52.388;13.096;2024-03-08T14:42:42;12.57;;;7.90;;